Home > Products > Valid Products > MTR

000
SAUS44 KEWX 010552
MTRATT
METAR KATT 010551Z AUTO 02004KT 10SM BKN055 26/18 A3002 RMK AO2
SLP151 T02560178 10333 20256 403610250 50017





000
SAUS44 KEWX 010452
MTRATT
METAR KATT 010451Z AUTO 02004KT 10SM OVC055 27/18 A3003 RMK AO2
SLP154 T02670178





000
SAUS44 KEWX 010352
MTRATT
METAR KATT 010351Z AUTO VRB04KT 10SM BKN055 27/19 A3001 RMK AO2
SLP147 T02720189





000
SAUS44 KEWX 010252
MTRATT
METAR KATT 010251Z AUTO 03007KT 10SM SCT060 SCT075 29/19 A2997 RMK
AO2 PRESRR SLP134 T02890194 53020





000
SAUS44 KEWX 010152
MTRATT
METAR KATT 010151Z AUTO 36010G16KT 10SM CLR 31/20 A2993 RMK AO2
SLP119 T03060200





000
SAUS44 KEWX 010052
MTRATT
METAR KATT 010051Z AUTO 35004KT 10SM CLR 32/21 A2992 RMK AO2 SLP118
T03170206





000
SAUS44 KEWX 312352
MTRATT
METAR KATT 312351Z AUTO 35009KT 10SM FEW070 33/21 A2991 RMK AO2
SLP113 T03330211 10361 20306 55012





000
SAUS44 KEWX 312252
MTRATT
METAR KATT 312251Z AUTO 00000KT 10SM CLR 36/21 A2991 RMK AO2 SLP111
T03560211





000
SAUS44 KEWX 312152
MTRATT
METAR KATT 312151Z AUTO VRB04KT 10SM CLR 36/22 A2992 RMK AO2 SLP116
T03560222





000
SAUS44 KEWX 312052
MTRATT
METAR KATT 312051Z AUTO VRB03KT 10SM FEW050 34/23 A2994 RMK AO2
SLP125 T03390228 58021





000
SAUS44 KEWX 311952
MTRATT
METAR KATT 311951Z AUTO 10SM CLR 33/23 A2997 RMK AO2 SLP132
T03280228





000
SAUS44 KEWX 311852
MTRATT
METAR KATT 311851Z AUTO 00000KT 10SM FEW045 FEW050 32/23 A2999 RMK
AO2 SLP140 T03170228





000
SAUS44 KEWX 311752
MTRATT
METAR KATT 311751Z AUTO 00000KT 10SM BKN046 31/23 A3001 RMK AO2
SLP147 T03110228 10311 20256 58001





000
SAUS44 KEWX 311700
MTRATT
SPECI KATT 311658Z AUTO 00000KT 10SM SCT026 BKN040 30/23 A3001 RMK
AO2 T03000228





000
SAUS44 KEWX 311652
MTRATT
METAR KATT 311651Z AUTO 00000KT 10SM BKN028 OVC039 29/23 A3001 RMK
AO2 SLP147 T02940228





000
SAUS44 KEWX 311643
MTRATT
SPECI KATT 311641Z AUTO VRB03KT 10SM BKN026 BKN033 BKN042 30/23
A3001 RMK AO2 T03000228





000
SAUS44 KEWX 311552
MTRATT
METAR KATT 311551Z AUTO 00000KT 10SM FEW026 BKN039 29/23 A3001 RMK
AO2 SLP147 T02890228





000
SAUS44 KEWX 311547
MTRATT
SPECI KATT 311546Z AUTO VRB03KT 10SM SCT026 BKN037 28/23 A3001 RMK
AO2





000
SAUS44 KEWX 311531
MTRATT
SPECI KATT 311530Z AUTO 30003KT 10SM BKN025 OVC035 28/23 A3001 RMK
AO2 T02830228





000
SAUS44 KEWX 311513
MTRATT
SPECI KATT 311512Z AUTO 00000KT 10SM FEW022 SCT026 OVC033 28/23
A3001 RMK AO2 T02830228





000
SAUS44 KEWX 311452
MTRATT
METAR KATT 311451Z AUTO 00000KT 10SM FEW021 OVC029 28/23 A3000 RMK
AO2 SLP144 T02780228 52013





000
SAUS44 KEWX 311352
MTRATT
METAR KATT 311351Z AUTO 00000KT 10SM BKN019 OVC025 26/23 A2999 RMK
AO2 SLP140 T02610228





000
SAUS44 KEWX 311252
MTRATT
METAR KATT 311251Z AUTO 19004KT 10SM OVC021 26/23 A2997 RMK AO2
SLP135 T02610228





000
SAUS44 KEWX 311152
MTRATT
METAR KATT 311151Z AUTO VRB03KT 10SM BKN021 OVC120 26/23 A2996 RMK
AO2 SLP131 T02560228 10267 20250 53004





000
SAUS44 KEWX 311148
MTRATT
SPECI KATT 311147Z AUTO VRB03KT 10SM SCT021 BKN120 26/23 A2996 RMK
AO2





000
SAUS44 KEWX 311052
MTRATT
METAR KATT 311051Z AUTO VRB03KT 10SM BKN017 BKN024 26/22 A2995 RMK
AO2 SLP128 T02560222





000
SAUS44 KEWX 310952
MTRATT
METAR KATT 310951Z AUTO VRB05KT 10SM OVC022 26/22 A2995 RMK AO2
SLP126 T02560222





000
SAUS44 KEWX 310852
MTRATT
METAR KATT 310851Z AUTO 17006KT 10SM OVC020 26/22 A2996 RMK AO2
SLP130 T02560217 58006





000
SAUS44 KEWX 310752
MTRATT
METAR KATT 310751Z AUTO 18005KT 10SM BKN018 26/21 A2998 RMK AO2
SLP134 T02560211





000
SAUS44 KEWX 310747
MTRATT
SPECI KATT 310746Z AUTO VRB05KT 10SM BKN016 BKN021 26/21 A2998 RMK
AO2





000
SAUS44 KEWX 310652
MTRATT
METAR KATT 310651Z AUTO VRB06KT 10SM CLR 26/19 A2998 RMK AO2 SLP137
T02560194





000
SAUS44 KEWX 310552
MTRATT
METAR KATT 310551Z AUTO VRB06G15KT 10SM CLR 27/18 A2998 RMK AO2
SLP135 T02670178 10344 20267 403560244 51020





000
SAUS44 KEWX 310452
MTRATT
METAR KATT 310451Z AUTO 17005KT 10SM CLR 28/17 A2997 RMK AO2 SLP133
T02830167





000
SAUS44 KEWX 310352
MTRATT
METAR KATT 310351Z AUTO 17008G19KT 10SM CLR 30/17 A2996 RMK AO2
SLP128 T03000167





000
SAUS44 KEWX 310352
MTRATT
METAR KATT 310351Z AUTO 17008G19KT 10SM CLR 30/17 A2996 RMK AO2
SLP128 T03000167





000
SAUS44 KEWX 310252
MTRATT
METAR KATT 310251Z AUTO 15008KT 10SM CLR 31/18 A2992 RMK AO2 SLP116
T03060183 53004





000
SAUS44 KEWX 310152
MTRATT
METAR KATT 310151Z AUTO 12004KT 10SM CLR 32/17 A2990 RMK AO2 SLP111
T03220167





000
SAUS44 KEWX 310053
MTRATT
METAR KATT 310051Z AUTO 14007KT 10SM CLR 33/16 A2990 RMK AO2 SLP111
T03330156





000
SAUS44 KEWX 302353
MTRATT
METAR KATT 302351Z AUTO VRB06KT 10SM CLR 34/16 A2990 RMK AO2 SLP111
T03440161 10356 20317 56018





000
SAUS44 KEWX 302252
MTRATT
METAR KATT 302251Z AUTO 16007KT 130V190 10SM CLR 34/17 A2992 RMK AO2
SLP115 T03440172





000
SAUS44 KEWX 302152
MTRATT
METAR KATT 302151Z AUTO 15007KT 10SM CLR 35/18 A2993 RMK AO2 SLP119
T03500178





000
SAUS44 KEWX 302052
MTRATT
METAR KATT 302051Z AUTO 15007KT 10SM CLR 35/18 A2996 RMK AO2 SLP128
T03500183 58025





000
SAUS44 KEWX 301952
MTRATT
METAR KATT 301951Z AUTO 20006KT 10SM CLR 35/19 A2998 RMK AO2 SLP137
T03500189





000
SAUS44 KEWX 301853
MTRATT
METAR KATT 301851Z AUTO 17006KT 10SM CLR 33/19 A3001 RMK AO2 SLP146
T03330189





000
SAUS44 KEWX 301752
MTRATT
METAR KATT 301751Z AUTO VRB04KT 10SM CLR 32/20 A3003 RMK AO2 SLP154
T03170200 10317 20244 58010





000
SAUS44 KEWX 301653
MTRATT
METAR KATT 301651Z AUTO 18005KT 10SM CLR 31/21 A3005 RMK AO2 SLP159
T03110211





000
SAUS44 KEWX 301552
MTRATT
METAR KATT 301551Z AUTO 17008KT 10SM CLR 29/21 A3007 RMK AO2 SLP167
T02890211





000
SAUS44 KEWX 301452
MTRATT
METAR KATT 301451Z AUTO VRB04KT 10SM FEW019 27/22 A3006 RMK AO2
SLP167 T02670217 51002





000
SAUS44 KEWX 301412
MTRATT
SPECI KATT 301410Z AUTO 19005KT 10SM SCT015 26/22 A3006 RMK AO2
T02610217





000
SAUS44 KEWX 301352
MTRATT
METAR KATT 301351Z AUTO VRB06KT 10SM BKN015 26/22 A3006 RMK AO2
SLP166 T02610222





000
SAUS44 KEWX 301350
MTRATT
SPECI KATT 301349Z AUTO VRB05KT 10SM BKN015 26/22 A3006 RMK AO2





000
SAUS44 KEWX 301252
MTRATT
METAR KATT 301251Z AUTO VRB05KT 10SM BKN012 25/22 A3006 RMK AO2
SLP165 T02500222





000
SAUS44 KEWX 301247
MTRATT
SPECI KATT 301246Z AUTO VRB03KT 10SM BKN012 25/22 A3006 RMK AO2





000
SAUS44 KEWX 301210
MTRATT
SPECI KATT 301209Z AUTO VRB04KT 10SM SCT013 24/22 A3005 RMK AO2
T02440222





000
SAUS44 KEWX 301152
MTRATT
METAR KATT 301151Z AUTO 17004KT 10SM BKN013 24/22 A3005 RMK AO2
SLP163 T02440217 10272 20244 53003





000
SAUS44 KEWX 301123
MTRATT
SPECI KATT 301122Z AUTO 17004KT 10SM BKN012 25/22 A3005 RMK AO2
T02500217





000
SAUS44 KEWX 301053
MTRATT
METAR KATT 301051Z AUTO 18003KT 10SM CLR 24/21 A3005 RMK AO2 SLP160
T02440211





000
SAUS44 KEWX 300953
MTRATT
METAR KATT 300951Z AUTO VRB04KT 10SM CLR 26/21 A3004 RMK AO2 SLP158
T02560206





000
SAUS44 KEWX 300852
MTRATT
METAR KATT 300851Z AUTO VRB04KT 10SM CLR 26/20 A3004 RMK AO2 SLP156
T02560200 58007





000
SAUS44 KEWX 300752
MTRATT
METAR KATT 300751Z AUTO 17003KT 10SM CLR 26/21 A3005 RMK AO2 SLP160
T02560206





000
SAUS44 KEWX 300652
MTRATT
METAR KATT 300651Z AUTO VRB04KT 10SM CLR 26/21 A3006 RMK AO2 SLP162
T02610206





000
SAUS44 KEWX 300553
MTRATT
METAR KATT 300551Z AUTO 15004KT 10SM CLR 27/21 A3006 RMK AO2 SLP163
T02720206 10311 20272 403610244 50004





000
SAUS44 KEWX 300452
MTRATT
METAR KATT 300451Z AUTO 14004KT 10SM CLR 28/21 A3007 RMK AO2 SLP165
T02780206





000
SAUS44 KEWX 300352
MTRATT
METAR KATT 300351Z AUTO 12003KT 10SM CLR 28/21 A3006 RMK AO2 SLP165
T02830211





000
SAUS44 KEWX 300252
MTRATT
METAR KATT 300251Z AUTO 09005KT 10SM CLR 29/21 A3005 RMK AO2 SLP161
T02890211 53007





000
SAUS44 KEWX 300152
MTRATT
METAR KATT 300151Z AUTO 10006KT 10SM CLR 29/21 A3003 RMK AO2 SLP156
T02940211





000
SAUS44 KEWX 300052
MTRATT
METAR KATT 300051Z AUTO VRB05KT 10SM CLR 31/19 A3003 RMK AO2 SLP154
T03060189





000
SAUS44 KEWX 292352
MTRATT
METAR KATT 292351Z AUTO 08006KT 10SM CLR 31/21 A3003 RMK AO2 SLP155
T03110211 10361 20311 58004





000
SAUS44 KEWX 292252
MTRATT
METAR KATT 292251Z AUTO 04008G16KT 10SM CLR 32/22 A3003 RMK AO2
SLP155 T03220217





000
SAUS44 KEWX 292152
MTRATT
METAR KATT 292151Z AUTO 07010G18KT 030V100 10SM SCT095 33/22 A3005
RMK AO2 SLP160 T03280217





000
SAUS44 KEWX 292053
MTRATT
METAR KATT 292051Z AUTO VRB03KT 10SM CLR 36/19 A3004 RMK AO2 SLP156
T03560189 56019





000
SAUS44 KEWX 291952
MTRATT
METAR KATT 291951Z AUTO VRB04KT 10SM FEW090 36/20 A3005 RMK AO2
SLP161 T03560200





000
SAUS44 KEWX 291853
MTRATT
METAR KATT 291851Z AUTO 17005KT 10SM FEW090 34/21 A3008 RMK AO2
SLP170 T03390211





000
SAUS44 KEWX 291753 COR
MTRATT
METAR KATT 291751Z AUTO 00000KT 10SM CLR 34/20 A3010 RMK AO2 SLP175
T03440200 10344 20244 58009





000
SAUS44 KEWX 291653
MTRATT
METAR KATT 291651Z AUTO VRB03KT 10SM CLR 33/22 A3012 RMK AO2 SLP183
T03280217





000
SAUS44 KEWX 291553
MTRATT
METAR KATT 291551Z AUTO VRB03KT 10SM CLR 31/21 A3012 RMK AO2 SLP185
T03060211





000
SAUS44 KEWX 291452
MTRATT
METAR KATT 291451Z AUTO VRB03KT 10SM CLR 28/22 A3013 RMK AO2 SLP186
T02830222 51010





000
SAUS44 KEWX 291352
MTRATT
METAR KATT 291351Z AUTO VRB03KT 10SM CLR 27/22 A3012 RMK AO2 SLP184
T02670222





000
SAUS44 KEWX 291252
MTRATT
METAR KATT 291251Z AUTO VRB03KT 10SM CLR 26/22 A3011 RMK AO2 SLP181
T02560222





000
SAUS44 KEWX 291152
MTRATT
METAR KATT 291151Z AUTO VRB03KT 10SM CLR 24/22 A3009 RMK AO2 SLP174
T02440222 10283 20244 53006





000
SAUS44 KEWX 291052
MTRATT
METAR KATT 291051Z AUTO 02003KT 10SM CLR 25/22 A3008 RMK AO2 SLP170
T02500217





000
SAUS44 KEWX 290953
MTRATT
METAR KATT 290951Z AUTO 00000KT 10SM CLR 26/22 A3008 RMK AO2 SLP169
T02560217





000
SAUS44 KEWX 290853
MTRATT
METAR KATT 290851Z AUTO 00000KT 10SM CLR 26/22 A3008 RMK AO2 SLP167
T02610217 58003





000
SAUS44 KEWX 290753
MTRATT
METAR KATT 290751Z AUTO 00000KT 10SM CLR 27/22 A3008 RMK AO2 SLP170
T02670217





000
SAUS44 KEWX 290652
MTRATT
METAR KATT 290651Z AUTO 00000KT 10SM CLR 28/22 A3009 RMK AO2 SLP173
T02780217





    US Dept of Commerce
    National Oceanic and Atmospheric Administration
    National Weather Service
    1325 East West Highway
    Silver Spring, MD 20910
    Page Author: NWS Internet Services Team
Disclaimer
Information Quality
Credits
Glossary
Privacy Policy
Freedom of Information Act (FOIA)
About Us
Career Opportunities